Time;durP1;ratioP1;P1;durP2;ratioP2;P2;SDS_P1;SDS_P2;PMS_P1;PMS_P2;Temp;Humidity;BMP_temperature;BMP_pressure;BME280_temperature;BME280_humidity;BME280_pressure;Samples;Min_cycle;Max_cycle;Signal;HPM_P1;HPM_P2
2021/03/26 00:01:33;;;;;;;;;;;9.60;99.90;;;;;;5020260;28;20037;-69
2021/03/26 00:04:37;;;;;;;17.55;8.48;;;9.80;99.90;;;;;;5021299;28;19916;-68
2021/03/26 00:07:42;;;;;;;19.98;9.70;;;9.90;99.90;;;;;;5018379;28;20368;-68
2021/03/26 00:10:46;;;;;;;14.27;8.90;;;10.00;99.90;;;;;;5020226;28;20049;-69
2021/03/26 00:13:51;;;;;;;17.40;8.95;;;10.10;99.90;;;;;;5019416;28;20041;-69
2021/03/26 00:16:55;;;;;;;15.10;8.10;;;10.10;99.90;;;;;;5018824;28;20044;-69
2021/03/26 00:19:59;;;;;;;17.08;8.48;;;10.20;99.90;;;;;;5020714;28;20044;-69
2021/03/26 00:23:05;;;;;;;12.73;7.03;;;10.20;99.90;;;;;;5019106;28;20048;-68
2021/03/26 00:26:11;;;;;;;18.08;8.07;;;10.20;99.90;;;;;;5020884;28;20047;-68
2021/03/26 00:29:15;;;;;;;15.75;7.43;;;10.30;99.90;;;;;;5019772;28;20056;-69
2021/03/26 00:32:19;;;;;;;13.25;7.15;;;10.20;99.90;;;;;;5017008;28;20041;-69
2021/03/26 00:35:26;;;;;;;18.45;8.50;;;10.30;99.90;;;;;;5017916;28;20041;-69
2021/03/26 00:38:31;;;;;;;13.00;6.95;;;10.30;99.90;;;;;;5020378;28;20036;-69
2021/03/26 00:41:35;;;;;;;16.73;7.07;;;10.30;99.90;;;;;;5020799;28;20109;-69
2021/03/26 00:44:40;;;;;;;15.98;7.50;;;10.40;99.90;;;;;;5021929;28;20084;-69
2021/03/26 00:47:45;;;;;;;13.18;6.18;;;10.40;99.90;;;;;;5018628;28;20064;-69
2021/03/26 00:50:56;;;;;;;17.05;8.27;;;10.40;99.90;;;;;;5015945;28;20053;-69
2021/03/26 00:54:00;;;;;;;12.35;6.45;;;10.40;99.90;;;;;;5018735;28;20049;-69
2021/03/26 00:57:05;;;;;;;14.25;6.75;;;10.30;99.90;;;;;;5017341;28;20100;-69
2021/03/26 01:00:15;;;;;;;16.02;6.95;;;10.40;99.90;;;;;;5022090;28;20068;-68
2021/03/26 01:03:23;;;;;;;12.40;6.20;;;10.40;99.90;;;;;;5018420;28;20041;-69
2021/03/26 01:06:34;;;;;;;12.50;6.75;;;10.30;99.90;;;;;;5018846;28;20994;-69
2021/03/26 01:09:38;;;;;;;10.68;6.88;;;10.30;99.90;;;;;;5017596;28;20677;-69
2021/03/26 01:12:43;;;;;;;12.82;6.80;;;10.20;99.90;;;;;;5020852;28;20065;-68
2021/03/26 01:15:49;;;;;;;12.57;6.57;;;10.10;99.90;;;;;;5016662;28;20061;-68
2021/03/26 01:18:55;;;;;;;18.27;8.23;;;10.10;99.90;;;;;;5022657;28;20045;-68
2021/03/26 01:22:00;;;;;;;12.48;6.05;;;10.00;99.90;;;;;;5018957;28;20041;-69
2021/03/26 01:25:15;;;;;;;14.52;7.30;;;9.80;99.90;;;;;;5021381;28;20049;-69
2021/03/26 01:28:26;;;;;;;14.27;7.30;;;9.70;99.90;;;;;;5017363;28;20484;-69
2021/03/26 01:31:50;;;;;;;13.27;7.07;;;9.50;99.90;;;;;;5018832;28;20044;-69
2021/03/26 01:34:54;;;;;;;13.30;6.55;;;9.30;99.90;;;;;;5025405;28;20052;-69
2021/03/26 01:37:59;;;;;;;11.93;6.10;;;9.20;99.90;;;;;;5026275;28;20044;-69
2021/03/26 01:41:26;;;;;;;11.82;6.60;;;9.10;99.90;;;;;;5010074;28;20052;-69
2021/03/26 01:44:30;;;;;;;12.00;6.32;;;9.00;99.90;;;;;;5024002;28;20047;-69
2021/03/26 01:47:44;;;;;;;16.55;7.30;;;8.90;99.90;;;;;;5020281;28;20065;-69
2021/03/26 01:50:49;;;;;;;11.15;6.22;;;8.80;99.90;;;;;;5022624;28;20052;-69
2021/03/26 01:53:54;;;;;;;20.20;6.40;;;8.70;99.90;;;;;;5023864;28;20488;-69
2021/03/26 01:56:58;;;;;;;13.10;7.15;;;8.60;99.90;;;;;;5019583;28;20393;-69
2021/03/26 02:00:14;;;;;;;10.45;6.00;;;8.60;99.90;;;;;;5028601;28;20045;-69
2021/03/26 02:03:30;;;;;;;20.80;6.70;;;8.60;99.90;;;;;;5026279;28;20120;-69
2021/03/26 02:06:41;;;;;;;11.10;6.10;;;8.60;99.90;;;;;;5020331;28;20048;-69
2021/03/26 02:09:47;;;;;;;10.23;6.28;;;8.50;99.90;;;;;;5022579;28;20048;-69
2021/03/26 02:12:59;;;;;;;10.32;5.53;;;8.50;99.90;;;;;;5024553;28;20496;-70
2021/03/26 02:16:07;;;;;;;14.52;6.05;;;8.40;99.90;;;;;;5016472;28;20048;-69
2021/03/26 02:19:22;;;;;;;11.50;6.18;;;8.40;99.90;;;;;;5009557;28;20049;-68
2021/03/26 02:22:30;;;;;;;11.50;6.05;;;8.30;99.90;;;;;;5024467;28;20044;-69
2021/03/26 02:25:37;;;;;;;11.63;6.00;;;8.30;99.90;;;;;;5025149;28;20310;-69
2021/03/26 02:28:42;;;;;;;11.48;6.18;;;8.30;99.90;;;;;;5026492;28;20052;-69
2021/03/26 02:32:30;;;;;;;13.25;6.03;;;8.20;99.90;;;;;;5026988;28;20052;-69
2021/03/26 02:36:13;;;;;;;11.67;6.20;;;8.10;99.90;;;;;;5024997;28;20046;-67
2021/03/26 02:39:44;;;;;;;11.27;5.35;;;8.00;99.90;;;;;;5020808;28;20052;-68
2021/03/26 02:42:59;;;;;;;11.63;5.70;;;7.90;99.90;;;;;;5024863;28;20048;-69
2021/03/26 02:46:12;;;;;;;10.63;5.35;;;7.80;99.90;;;;;;5020230;28;20683;-69
2021/03/26 02:49:22;;;;;;;14.52;6.07;;;7.80;99.90;;;;;;5021319;28;20376;-67
2021/03/26 02:52:33;;;;;;;10.10;5.50;;;7.80;99.90;;;;;;5020272;28;20048;-68
2021/03/26 02:56:17;;;;;;;10.32;6.57;;;7.80;99.90;;;;;;5017500;28;20049;-67
2021/03/26 02:59:41;;;;;;;15.65;5.85;;;7.70;99.90;;;;;;5018249;28;20048;-68
2021/03/26 03:03:01;;;;;;;10.77;5.53;;;7.60;99.90;;;;;;5023454;28;20391;-69
2021/03/26 03:06:16;;;;;;;12.60;5.97;;;7.50;99.90;;;;;;5017971;28;20048;-68
2021/03/26 03:09:50;;;;;;;15.38;7.07;;;7.40;99.90;;;;;;5020384;28;20044;-69
2021/03/26 03:13:05;;;;;;;13.85;7.40;;;7.40;99.90;;;;;;5016118;28;20056;-68
2021/03/26 03:16:21;;;;;;;15.70;6.78;;;7.40;99.90;;;;;;5027036;28;20049;-68
2021/03/26 03:19:51;;;;;;;11.85;6.13;;;7.30;99.90;;;;;;5030689;28;20049;-69
2021/03/26 03:23:07;;;;;;;12.77;6.43;;;7.30;99.90;;;;;;5029911;28;20052;-69
2021/03/26 03:26:52;;;;;;;14.88;7.38;;;7.30;99.90;;;;;;5023260;28;20388;-68
2021/03/26 03:30:20;;;;;;;15.85;6.88;;;7.40;99.90;;;;;;5032200;28;20533;-69
2021/03/26 03:33:41;;;;;;;13.63;6.40;;;7.50;99.90;;;;;;5026139;28;20056;-68
2021/03/26 03:37:28;;;;;;;13.95;6.35;;;7.40;99.90;;;;;;5028450;28;20388;-68
2021/03/26 03:41:02;;;;;;;18.00;8.82;;;7.40;99.90;;;;;;5024987;28;20049;-69
2021/03/26 03:44:30;;;;;;;19.42;9.75;;;7.10;99.90;;;;;;5030137;28;20056;-69
2021/03/26 03:47:51;;;;;;;19.58;10.75;;;7.00;99.90;;;;;;5029344;28;20398;-69
2021/03/26 03:51:17;;;;;;;19.38;10.40;;;6.70;99.90;;;;;;5029794;28;20117;-69
2021/03/26 03:54:33;;;;;;;17.13;9.93;;;6.70;99.90;;;;;;5029806;28;20053;-69
2021/03/26 03:57:44;;;;;;;20.95;10.77;;;6.70;99.90;;;;;;5014210;28;20048;-69
2021/03/26 04:00:58;;;;;;;29.35;12.15;;;6.60;99.90;;;;;;5031514;28;20056;-69
2021/03/26 04:04:15;;;;;;;33.95;14.55;;;6.60;99.90;;;;;;5030642;28;20048;-69
2021/03/26 04:07:32;;;;;;;29.02;14.88;;;6.70;99.90;;;;;;5028590;28;20032;-69
2021/03/26 04:10:38;;;;;;;27.38;14.68;;;6.70;99.90;;;;;;5029888;28;20045;-69
2021/03/26 04:13:48;;;;;;;25.88;14.18;;;6.70;99.90;;;;;;5030491;28;20048;-68
2021/03/26 04:17:00;;;;;;;35.33;15.45;;;6.60;99.90;;;;;;5026243;28;20045;-69
2021/03/26 04:20:12;;;;;;;28.93;15.47;;;6.60;99.90;;;;;;5017897;28;20372;-69
2021/03/26 04:23:32;;;;;;;30.15;14.90;;;6.60;99.90;;;;;;5015468;28;20052;-69
2021/03/26 04:27:17;;;;;;;30.45;15.85;;;6.50;99.90;;;;;;5016821;28;20040;-69
2021/03/26 04:30:54;;;;;;;26.80;13.52;;;6.50;99.90;;;;;;5026277;28;20044;-69
2021/03/26 04:34:18;;;;;;;28.25;12.45;;;6.50;99.90;;;;;;5030779;28;20511;-69
2021/03/26 04:38:12;;;;;;;22.25;11.75;;;6.50;99.90;;;;;;5027738;28;20048;-69
2021/03/26 04:41:50;;;;;;;18.30;10.02;;;6.50;99.90;;;;;;4993940;28;20546;-69
2021/03/26 04:44:55;;;;;;;17.17;9.52;;;6.50;99.90;;;;;;5029610;28;20045;-69
2021/03/26 04:48:16;;;;;;;22.27;11.48;;;6.40;99.90;;;;;;5028866;28;20044;-69
2021/03/26 04:51:48;;;;;;;19.73;11.52;;;6.30;99.90;;;;;;5029583;28;20053;-69
2021/03/26 04:55:08;;;;;;;22.80;10.77;;;6.10;99.90;;;;;;5029560;28;20052;-67
2021/03/26 04:58:36;;;;;;;17.52;9.85;;;6.10;99.90;;;;;;5029980;28;20424;-69
2021/03/26 05:02:02;;;;;;;15.88;9.80;;;6.10;99.90;;;;;;5030158;28;20395;-69
2021/03/26 05:05:07;;;;;;;18.20;10.82;;;6.10;99.90;;;;;;5027621;28;20044;-69
2021/03/26 05:08:46;;;;;;;23.13;12.38;;;6.00;99.90;;;;;;5031500;28;20044;-69
2021/03/26 05:12:11;;;;;;;25.80;13.68;;;5.90;99.90;;;;;;5034033;28;20041;-67
2021/03/26 05:16:07;;;;;;;29.92;14.45;;;5.80;99.90;;;;;;5032147;28;20369;-69
2021/03/26 05:19:43;;;;;;;28.40;13.82;;;5.80;99.90;;;;;;5023776;28;20393;-70
2021/03/26 05:22:59;;;;;;;24.48;12.60;;;5.80;99.90;;;;;;5021941;28;20045;-67
2021/03/26 05:26:22;;;;;;;24.42;11.77;;;5.80;99.90;;;;;;5033108;28;20056;-69
2021/03/26 05:29:47;;;;;;;21.17;12.98;;;5.80;99.90;;;;;;5025222;28;20076;-69
2021/03/26 05:32:57;;;;;;;29.10;13.20;;;5.90;99.90;;;;;;5032525;28;20048;-69
2021/03/26 05:36:27;;;;;;;31.38;13.10;;;5.90;99.90;;;;;;5019929;28;20057;-68
2021/03/26 05:39:59;;;;;;;24.38;13.88;;;6.00;99.90;;;;;;5023439;28;20052;-69
2021/03/26 05:43:46;;;;;;;25.90;13.63;;;6.00;99.90;;;;;;5033171;28;20048;-68
2021/03/26 05:47:28;;;;;;;32.05;16.52;;;6.10;99.90;;;;;;5031652;28;20048;-69
2021/03/26 05:50:54;;;;;;;39.20;18.27;;;6.10;99.90;;;;;;5033726;28;20052;-69
2021/03/26 05:54:29;;;;;;;31.08;18.20;;;6.10;99.90;;;;;;5032739;28;20048;-69
2021/03/26 05:58:05;;;;;;;28.33;16.10;;;6.80;99.90;;;;;;5031936;28;20088;-69
2021/03/26 06:01:40;;;;;;;22.13;14.23;;;9.30;99.90;;;;;;5032262;28;20103;-69
2021/03/26 06:05:36;;;;;;;21.17;13.32;;;10.70;99.90;;;;;;5016265;28;20543;-68
2021/03/26 06:09:21;;;;;;;22.83;11.98;;;12.10;99.90;;;;;;5011686;28;20053;-69
2021/03/26 06:13:23;;;;;;;18.00;11.77;;;12.90;99.90;;;;;;5010103;28;20052;-67
2021/03/26 06:17:08;;;;;;;19.10;11.43;;;14.50;99.90;;;;;;5006306;28;20041;-68
2021/03/26 06:21:10;;;;;;;20.75;11.40;;;15.60;99.90;;;;;;5022769;28;20037;-68
2021/03/26 06:25:04;;;;;;;18.95;10.30;;;16.50;99.90;;;;;;5015966;28;20045;-68
2021/03/26 06:28:14;;;;;;;22.38;9.52;;;17.60;99.90;;;;;;5023063;28;20149;-68
2021/03/26 06:31:56;;;;;;;11.70;8.30;;;18.20;99.90;;;;;;5019175;28;20052;-68
2021/03/26 06:35:59;;;;;;;16.60;7.13;;;19.00;99.40;;;;;;4998853;28;20108;-68
2021/03/26 06:39:30;;;;;;;15.02;7.28;;;19.80;95.90;;;;;;5021182;28;20056;-69
2021/03/26 06:42:38;;;;;;;19.98;7.75;;;20.00;95.60;;;;;;5023702;28;20044;-69
2021/03/26 06:46:07;;;;;;;11.70;8.20;;;20.30;94.20;;;;;;5009820;28;20044;-69
2021/03/26 06:49:41;;;;;;;14.00;8.52;;;17.60;95.70;;;;;;5022889;28;20056;-68
2021/03/26 06:53:07;;;;;;;14.52;8.85;;;16.80;97.50;;;;;;5021808;28;20126;-68
2021/03/26 06:56:36;;;;;;;15.32;8.40;;;15.20;99.60;;;;;;5011535;28;20047;-68
2021/03/26 07:00:03;;;;;;;17.05;8.95;;;16.20;98.90;;;;;;5024125;28;20060;-69
2021/03/26 07:03:24;;;;;;;16.30;9.57;;;14.90;99.90;;;;;;5023985;28;20065;-68
2021/03/26 07:06:50;;;;;;;13.20;9.07;;;15.40;99.90;;;;;;5007420;28;20056;-69
2021/03/26 07:10:00;;;;;;;12.98;8.57;;;16.70;98.10;;;;;;5022410;28;20554;-69
2021/03/26 07:13:21;;;;;;;14.35;8.40;;;17.40;96.90;;;;;;5023699;28;20767;-68
2021/03/26 07:16:57;;;;;;;12.93;7.57;;;16.90;97.60;;;;;;5010100;28;20487;-69
2021/03/26 07:20:40;;;;;;;13.77;8.13;;;17.30;97.30;;;;;;5022334;28;20699;-69
2021/03/26 07:24:23;;;;;;;13.75;8.02;;;17.80;97.30;;;;;;5023692;28;20148;-69
2021/03/26 07:28:07;;;;;;;15.52;8.05;;;16.80;97.50;;;;;;5016596;28;20383;-68
2021/03/26 07:32:00;;;;;;;16.98;8.57;;;18.20;96.30;;;;;;5021416;28;20052;-68
2021/03/26 07:35:31;;;;;;;20.23;11.05;;;16.90;97.20;;;;;;5010962;28;20044;-68
2021/03/26 07:38:47;;;;;;;21.02;14.57;;;15.30;99.90;;;;;;5021576;28;20044;-68
2021/03/26 07:42:27;;;;;;;23.42;13.82;;;15.40;99.90;;;;;;5020321;28;20503;-69
2021/03/26 07:45:58;;;;;;;20.38;10.90;;;15.10;99.90;;;;;;5007748;28;20357;-68
2021/03/26 07:49:22;;;;;;;18.27;11.15;;;13.40;99.90;;;;;;5021636;28;20723;-68
2021/03/26 07:53:07;;;;;;;17.25;10.30;;;13.90;99.90;;;;;;5022210;28;20483;-68
2021/03/26 07:56:24;;;;;;;15.20;8.77;;;15.90;99.90;;;;;;5006581;28;20052;-68
2021/03/26 07:59:59;;;;;;;16.38;8.77;;;18.50;97.80;;;;;;5021002;28;20396;-69
2021/03/26 08:03:25;;;;;;;15.45;8.63;;;20.20;95.90;;;;;;5021408;28;20756;-69
2021/03/26 08:06:34;;;;;;;12.95;8.13;;;21.90;92.30;;;;;;5006546;28;20039;-69
2021/03/26 08:09:47;;;;;;;14.23;7.35;;;23.50;89.20;;;;;;5021393;28;20041;-69
2021/03/26 08:13:13;;;;;;;12.20;8.10;;;24.00;85.80;;;;;;5021204;28;20384;-69
2021/03/26 08:16:32;;;;;;;11.32;6.97;;;25.00;79.90;;;;;;5006266;28;20471;-69
2021/03/26 08:19:59;;;;;;;14.38;8.00;;;26.20;75.90;;;;;;5017908;28;20419;-69
2021/03/26 08:23:19;;;;;;;12.32;7.00;;;24.60;78.50;;;;;;5017030;28;20044;-68
2021/03/26 08:26:32;;;;;;;14.02;8.55;;;24.50;76.30;;;;;;5010030;28;20052;-69
2021/03/26 08:29:52;;;;;;;14.02;9.05;;;22.60;78.80;;;;;;5020204;28;20063;-69
2021/03/26 08:33:12;;;;;;;14.88;8.65;;;21.20;83.30;;;;;;5031973;28;20501;-69
2021/03/26 08:36:35;;;;;;;15.70;8.63;;;20.50;85.50;;;;;;5009185;28;20243;-69
2021/03/26 08:39:49;;;;;;;15.52;9.52;;;21.20;84.70;;;;;;5021252;28;20057;-69
2021/03/26 08:42:54;;;;;;;22.88;10.23;;;21.20;84.30;;;;;;5019075;28;20376;-69
2021/03/26 08:46:37;;;;;;;16.90;8.18;;;17.50;90.70;;;;;;5008910;28;20631;-69
2021/03/26 08:50:35;;;;;;;15.68;9.35;;;18.90;91.60;;;;;;5003322;28;20048;-68
2021/03/26 08:53:57;;;;;;;14.43;8.60;;;19.60;90.90;;;;;;5014679;28;20049;-69
2021/03/26 08:57:43;;;;;;;15.52;9.73;;;18.60;90.80;;;;;;5012934;28;20048;-69
2021/03/26 09:01:24;;;;;;;15.93;8.98;;;18.50;92.90;;;;;;5004652;28;20061;-69
2021/03/26 09:05:07;;;;;;;18.83;9.40;;;20.50;90.80;;;;;;5017053;28;20040;-69
2021/03/26 09:08:31;;;;;;;;;;;20.10;90.50;;;;;;5023319;28;20065;-69
2021/03/26 09:11:59;;;;;;;17.17;8.18;;;20.60;90.70;;;;;;5022229;28;20468;-68
2021/03/26 09:15:40;;;;;;;13.60;8.40;;;19.80;91.40;;;;;;5016345;28;20047;-69
2021/03/26 09:18:47;;;;;;;13.98;7.38;;;19.10;91.90;;;;;;5023723;28;20040;-68
2021/03/26 09:22:06;;;;;;;12.52;6.93;;;19.00;92.00;;;;;;5020712;28;20048;-69
2021/03/26 09:25:46;;;;;;;14.68;6.60;;;19.80;91.90;;;;;;5012754;28;20044;-69
2021/03/26 09:28:57;;;;;;;18.98;6.07;;;21.20;91.10;;;;;;5022002;28;20064;-68
2021/03/26 09:32:07;;;;;;;13.23;6.68;;;25.50;84.50;;;;;;5020606;28;20044;-69
2021/03/26 09:35:35;;;;;;;8.45;5.20;;;28.40;74.90;;;;;;5012554;28;20057;-69
2021/03/26 09:38:47;;;;;;;8.10;4.68;;;29.60;69.10;;;;;;5023742;28;20053;-69
2021/03/26 09:42:04;;;;;;;7.85;4.28;;;27.70;68.60;;;;;;5022694;28;20048;-69
2021/03/26 09:45:28;;;;;;;6.82;3.33;;;28.80;66.80;;;;;;5011137;28;20048;-68
2021/03/26 09:48:47;;;;;;;9.90;3.97;;;30.60;63.20;;;;;;5021902;28;20052;-69
2021/03/26 09:52:00;;;;;;;9.63;3.42;;;33.70;60.00;;;;;;5021467;28;20041;-66
2021/03/26 09:55:32;;;;;;;11.00;4.20;;;35.50;54.00;;;;;;5013747;28;20052;-68
2021/03/26 09:58:59;;;;;;;9.38;3.85;;;31.20;52.90;;;;;;5027144;28;20061;-68
2021/03/26 10:02:10;;;;;;;12.80;3.97;;;26.10;60.40;;;;;;5025805;28;20052;-69
2021/03/26 10:05:20;;;;;;;;;;;25.10;63.50;;;;;;5014566;28;20642;-68
2021/03/26 10:09:21;;;;;;;10.80;4.53;;;23.50;67.00;;;;;;5025436;28;19920;-69
2021/03/26 10:12:28;;;;;;;9.32;4.20;;;21.00;70.90;;;;;;5023476;28;20828;-68
2021/03/26 10:15:58;;;;;;;7.50;4.07;;;19.90;75.00;;;;;;5010912;28;20068;-68
2021/03/26 10:20:01;;;;;;;14.57;4.82;;;19.90;77.10;;;;;;5025634;28;20557;-68
2021/03/26 10:23:28;;;;;;;8.73;3.50;;;19.60;79.30;;;;;;5024167;28;20503;-68
2021/03/26 10:26:38;;;;;;;8.75;3.67;;;21.10;78.90;;;;;;5014158;28;20695;-68
2021/03/26 10:29:50;;;;;;;8.60;3.38;;;22.00;75.40;;;;;;5023103;28;20510;-68
2021/03/26 10:33:04;;;;;;;7.22;3.40;;;22.90;73.40;;;;;;5020148;28;20388;-69
2021/03/26 10:36:31;;;;;;;9.85;3.88;;;23.20;72.60;;;;;;5012232;28;20056;-69
2021/03/26 10:39:51;;;;;;;6.53;2.95;;;22.80;73.90;;;;;;5023375;28;20052;-68
2021/03/26 10:43:12;;;;;;;11.55;3.67;;;22.00;75.00;;;;;;5025215;28;20040;-68
2021/03/26 10:46:35;;;;;;;9.15;3.70;;;21.40;75.60;;;;;;5014259;28;20045;-68
2021/03/26 10:49:50;;;;;;;8.93;3.83;;;20.90;77.20;;;;;;5023205;28;20512;-68
2021/03/26 10:53:11;;;;;;;8.98;4.20;;;20.40;79.70;;;;;;5027409;28;20048;-68
2021/03/26 10:56:43;;;;;;;8.88;4.25;;;20.00;80.80;;;;;;5022481;28;20048;-69
2021/03/26 10:59:55;;;;;;;17.48;4.43;;;20.00;80.60;;;;;;5026252;28;20056;-68
2021/03/26 11:03:11;;;;;;;13.63;5.32;;;19.40;81.30;;;;;;5026157;28;20041;-68
2021/03/26 11:06:38;;;;;;;10.77;5.07;;;19.30;83.00;;;;;;5028557;28;20044;-68
2021/03/26 11:09:54;;;;;;;21.70;5.72;;;18.20;86.80;;;;;;5025812;28;20037;-68
2021/03/26 11:13:33;;;;;;;6.40;3.65;;;19.00;88.20;;;;;;5003709;28;20060;-69
2021/03/26 11:16:44;;;;;;;8.25;3.35;;;20.00;85.10;;;;;;5025961;28;20057;-69
2021/03/26 11:20:12;;;;;;;9.35;3.85;;;20.50;83.20;;;;;;5024564;28;20377;-69
2021/03/26 11:23:17;;;;;;;8.75;3.45;;;20.70;82.50;;;;;;5030001;28;20044;-69
2021/03/26 11:26:27;;;;;;;6.60;3.08;;;20.80;83.10;;;;;;5029544;28;20053;-68
2021/03/26 11:29:38;;;;;;;7.22;2.78;;;21.30;83.10;;;;;;5029543;28;20057;-69
2021/03/26 11:32:44;;;;;;;6.65;2.42;;;21.50;81.10;;;;;;5018445;28;20053;-68
2021/03/26 11:35:53;;;;;;;18.48;3.13;;;21.20;82.00;;;;;;5028756;28;20056;-69
2021/03/26 11:39:04;;;;;;;9.95;2.58;;;20.80;82.20;;;;;;5026652;28;20380;-69
2021/03/26 11:42:08;;;;;;;4.32;2.50;;;20.90;83.60;;;;;;5025400;28;20044;-69
2021/03/26 11:45:13;;;;;;;7.07;3.35;;;20.50;83.90;;;;;;5026886;28;20044;-69
2021/03/26 11:48:35;;;;;;;6.22;3.35;;;20.40;85.20;;;;;;5026199;28;20062;-69
2021/03/26 11:51:55;;;;;;;6.30;3.55;;;20.20;85.70;;;;;;5019864;28;20052;-68
2021/03/26 11:55:15;;;;;;;5.70;3.15;;;20.00;85.50;;;;;;5027421;28;20419;-68
2021/03/26 11:58:27;;;;;;;7.47;3.10;;;20.00;86.70;;;;;;5026370;28;20081;-69
2021/03/26 12:01:36;;;;;;;;;;;19.90;86.40;;;;;;5024553;28;20113;-68
2021/03/26 12:05:20;;;;;;;8.63;2.88;;;19.90;87.10;;;;;;5024956;28;20387;-68
2021/03/26 12:08:50;;;;;;;7.00;2.78;;;20.00;87.10;;;;;;5019395;28;20392;-68
2021/03/26 12:12:19;;;;;;;7.47;3.47;;;20.10;87.30;;;;;;5025790;28;20041;-68
2021/03/26 12:15:29;;;;;;;6.22;3.60;;;20.00;87.50;;;;;;5023557;28;20052;-68
2021/03/26 12:18:48;;;;;;;8.13;3.30;;;20.00;87.40;;;;;;5024875;28;20048;-68
2021/03/26 12:22:17;;;;;;;9.27;2.90;;;20.00;87.80;;;;;;5026489;28;20045;-68
2021/03/26 12:25:37;;;;;;;5.10;2.80;;;19.80;88.10;;;;;;5026704;28;20041;-69
2021/03/26 12:28:55;;;;;;;8.65;3.05;;;19.90;88.40;;;;;;5021956;28;20037;-69
2021/03/26 12:32:11;;;;;;;13.27;3.35;;;20.10;87.70;;;;;;5023258;28;20052;-69
2021/03/26 12:35:21;;;;;;;5.05;2.47;;;20.30;87.40;;;;;;5020876;28;20500;-68
2021/03/26 12:38:32;;;;;;;5.82;2.63;;;20.40;87.20;;;;;;5027043;28;20053;-68
2021/03/26 12:42:10;;;;;;;3.70;2.25;;;20.20;87.20;;;;;;5024077;28;20048;-68
2021/03/26 12:45:35;;;;;;;4.65;2.50;;;20.40;87.20;;;;;;5028835;28;20121;-69
2021/03/26 12:48:49;;;;;;;4.18;2.20;;;20.60;87.10;;;;;;5025624;28;20495;-68
2021/03/26 12:52:03;;;;;;;5.50;2.20;;;20.90;86.10;;;;;;5027098;28;20048;-69
2021/03/26 12:55:29;;;;;;;11.32;2.65;;;21.30;86.10;;;;;;5023667;28;20117;-69
2021/03/26 12:59:04;;;;;;;5.47;1.98;;;21.70;84.20;;;;;;5027860;28;20040;-69
2021/03/26 13:02:54;;;;;;;3.10;1.95;;;22.00;83.70;;;;;;5026550;28;20105;-69
2021/03/26 13:06:20;;;;;;;3.95;2.28;;;22.30;83.10;;;;;;5027630;28;20053;-68
2021/03/26 13:09:40;;;;;;;5.38;2.45;;;22.70;83.40;;;;;;5028467;28;20048;-69
2021/03/26 13:12:48;;;;;;;6.53;2.10;;;22.70;82.20;;;;;;5028088;28;20121;-68
2021/03/26 13:16:37;;;;;;;7.32;2.70;;;22.60;82.10;;;;;;5025637;28;20045;-69
2021/03/26 13:19:44;;;;;;;7.13;2.22;;;22.50;82.20;;;;;;5026869;28;20040;-69
2021/03/26 13:22:57;;;;;;;3.00;2.00;;;22.10;83.00;;;;;;5026010;28;20033;-69
2021/03/26 13:26:06;;;;;;;4.30;1.98;;;21.70;83.10;;;;;;5026266;28;20072;-69
2021/03/26 13:29:25;;;;;;;5.47;2.70;;;21.40;85.10;;;;;;5029848;28;20044;-68
2021/03/26 13:32:55;;;;;;;5.80;2.60;;;21.10;85.80;;;;;;5011865;28;20044;-69
2021/03/26 13:36:06;;;;;;;6.43;2.65;;;20.70;87.20;;;;;;5024392;28;20048;-68
2021/03/26 13:39:27;;;;;;;5.75;3.00;;;20.10;88.70;;;;;;5026294;28;20061;-68
2021/03/26 13:42:56;;;;;;;6.30;2.95;;;19.80;89.40;;;;;;5020580;28;20480;-69
2021/03/26 13:46:04;;;;;;;9.57;3.40;;;19.60;90.10;;;;;;5020371;28;20385;-68
2021/03/26 13:49:24;;;;;;;5.63;2.50;;;19.50;90.40;;;;;;5026285;28;20044;-68
2021/03/26 13:52:57;;;;;;;4.72;2.58;;;19.40;90.90;;;;;;5023820;28;20044;-68
2021/03/26 13:56:21;;;;;;;13.23;7.65;;;19.40;91.20;;;;;;5025540;28;20503;-68
2021/03/26 13:59:40;;;;;;;7.57;4.18;;;19.60;91.00;;;;;;5026212;28;20059;-68
2021/03/26 14:03:02;;;;;;;6.72;3.00;;;19.60;90.90;;;;;;5022798;28;20113;-68
2021/03/26 14:06:09;;;;;;;8.35;4.47;;;19.40;91.30;;;;;;5025446;28;20048;-68
2021/03/26 14:09:23;;;;;;;13.00;5.03;;;19.20;92.40;;;;;;5026455;28;20049;-67
2021/03/26 14:12:30;;;;;;;14.30;5.78;;;18.60;93.50;;;;;;5023641;28;20502;-68
2021/03/26 14:15:39;;;;;;;10.00;5.88;;;18.10;94.60;;;;;;5025091;28;20060;-67
2021/03/26 14:18:53;;;;;;;17.35;7.18;;;17.50;95.70;;;;;;5025258;28;20052;-69
2021/03/26 14:22:11;;;;;;;20.23;7.72;;;17.10;96.90;;;;;;5021509;28;20573;-68
2021/03/26 14:25:34;;;;;;;15.90;7.25;;;16.80;98.10;;;;;;5025820;28;20403;-68
2021/03/26 14:29:04;;;;;;;17.92;8.13;;;16.60;99.30;;;;;;5026176;28;20057;-68
2021/03/26 14:32:18;;;;;;;12.38;6.82;;;16.30;99.90;;;;;;5017167;28;20064;-68
2021/03/26 14:35:32;;;;;;;16.17;7.47;;;16.30;99.90;;;;;;5022281;28;20408;-68
2021/03/26 14:38:59;;;;;;;16.10;7.20;;;16.30;99.90;;;;;;5022112;28;20060;-69
2021/03/26 14:42:28;;;;;;;23.50;8.00;;;16.60;99.90;;;;;;5017660;28;20049;-69
2021/03/26 14:45:38;;;;;;;14.90;6.40;;;16.80;99.90;;;;;;5025686;28;20392;-70
2021/03/26 14:49:04;;;;;;;15.55;8.82;;;16.90;99.90;;;;;;5023760;28;20056;-70
2021/03/26 14:52:21;;;;;;;20.85;7.85;;;16.90;99.90;;;;;;5020979;28;20483;-69
2021/03/26 14:55:45;;;;;;;16.38;8.60;;;17.10;99.90;;;;;;5023339;28;20064;-69
2021/03/26 14:59:06;;;;;;;19.40;7.25;;;17.30;99.90;;;;;;5022218;28;20060;-68
2021/03/26 15:02:13;;;;;;;14.20;6.32;;;17.30;99.90;;;;;;5020870;28;20048;-69
2021/03/26 15:05:35;;;;;;;21.48;9.38;;;17.20;99.90;;;;;;5021470;28;20068;-69
2021/03/26 15:09:00;;;;;;;17.75;8.30;;;17.20;99.90;;;;;;5023249;28;20044;-69
2021/03/26 15:12:10;;;;;;;20.17;8.98;;;17.20;99.90;;;;;;5021351;28;20183;-69
2021/03/26 15:15:23;;;;;;;19.50;7.72;;;17.00;99.90;;;;;;5024057;28;20049;-69
2021/03/26 15:18:40;;;;;;;11.57;5.82;;;17.00;99.90;;;;;;5022586;28;20044;-69
2021/03/26 15:22:16;;;;;;;16.42;6.30;;;17.00;99.90;;;;;;5020469;28;20075;-68
2021/03/26 15:25:41;;;;;;;17.23;7.30;;;16.80;99.90;;;;;;5023131;28;20175;-69
2021/03/26 15:28:53;;;;;;;44.92;17.13;;;16.80;99.90;;;;;;5028394;28;20577;-69
2021/03/26 15:32:21;;;;;;;22.15;11.52;;;16.70;99.90;;;;;;5023907;28;20048;-69
2021/03/26 15:35:44;;;;;;;18.73;8.82;;;16.70;99.90;;;;;;5021242;28;20061;-69
2021/03/26 15:39:15;;;;;;;12.88;5.82;;;16.60;99.90;;;;;;5023403;28;20044;-69
2021/03/26 15:42:38;;;;;;;19.00;7.00;;;16.60;99.90;;;;;;5037252;28;20044;-69
2021/03/26 15:45:51;;;;;;;20.75;8.02;;;16.60;99.90;;;;;;5028935;28;20801;-68
2021/03/26 15:49:15;;;;;;;12.65;7.45;;;16.60;99.90;;;;;;5029883;28;20040;-69
2021/03/26 15:52:25;;;;;;;14.07;6.45;;;16.50;99.90;;;;;;5021693;28;20044;-69
2021/03/26 15:56:16;;;;;;;9.43;5.40;;;16.50;99.90;;;;;;5023247;28;20037;-69
2021/03/26 15:59:38;;;;;;;10.15;5.05;;;16.40;99.90;;;;;;5027662;28;20044;-69
2021/03/26 16:03:04;;;;;;;8.00;5.30;;;16.40;99.90;;;;;;5028274;28;20082;-69
2021/03/26 16:06:30;;;;;;;10.68;5.93;;;16.50;99.90;;;;;;5025778;28;20045;-70
2021/03/26 16:10:36;;;;;;;9.95;5.30;;;16.50;99.90;;;;;;5025349;28;20040;-68
2021/03/26 16:14:02;;;;;;;18.30;8.40;;;16.50;99.90;;;;;;4984051;28;20044;-69
2021/03/26 16:17:07;;;;;;;12.05;6.07;;;16.50;99.90;;;;;;5015577;28;20052;-69
2021/03/26 16:20:48;;;;;;;17.58;7.35;;;16.30;99.90;;;;;;5021068;28;20048;-69
2021/03/26 16:24:38;;;;;;;14.77;7.05;;;16.10;99.90;;;;;;5028254;28;20052;-70
2021/03/26 16:28:10;;;;;;;17.00;9.48;;;16.20;99.90;;;;;;5024787;28;20083;-70
2021/03/26 16:31:16;;;;;;;;;;;16.20;99.90;;;;;;5027875;28;20056;-69
2021/03/26 16:34:47;;;;;;;11.45;6.30;;;16.30;99.90;;;;;;5029758;28;19917;-69
2021/03/26 16:38:16;;;;;;;12.70;6.30;;;16.10;99.90;;;;;;5026573;28;20590;-70
2021/03/26 16:41:26;;;;;;;9.32;5.95;;;15.90;99.90;;;;;;5011682;28;20052;-69
2021/03/26 16:44:52;;;;;;;10.07;5.68;;;15.70;99.90;;;;;;5025935;28;20041;-69
2021/03/26 16:48:27;;;;;;;14.57;7.85;;;15.40;99.90;;;;;;5027011;28;20044;-69
2021/03/26 16:51:38;;;;;;;21.17;8.95;;;15.10;99.90;;;;;;5028107;28;20052;-69
2021/03/26 16:54:53;;;;;;;15.00;7.85;;;14.80;99.90;;;;;;5030139;28;20377;-69
2021/03/26 16:58:21;;;;;;;14.82;7.97;;;14.70;99.90;;;;;;5025589;28;20049;-69
2021/03/26 17:01:58;;;;;;;13.60;7.75;;;14.50;99.90;;;;;;5024886;28;20037;-71
2021/03/26 17:05:24;;;;;;;16.00;7.20;;;14.30;99.90;;;;;;5023120;28;20044;-69
2021/03/26 17:08:47;;;;;;;17.67;8.10;;;14.10;99.90;;;;;;5019057;28;20056;-69
2021/03/26 17:11:54;;;;;;;;;;;14.00;99.90;;;;;;5026648;28;20041;-69
2021/03/26 17:15:36;;;;;;;16.02;8.40;;;13.80;99.90;;;;;;5023107;28;19928;-69
2021/03/26 17:19:07;;;;;;;15.95;7.85;;;13.70;99.90;;;;;;5014599;28;20044;-70
2021/03/26 17:22:34;;;;;;;17.85;8.68;;;13.50;99.90;;;;;;5026138;28;20048;-69
2021/03/26 17:25:53;;;;;;;16.88;8.98;;;13.30;99.90;;;;;;5022434;28;20060;-68